createdAt,value
2022-11-27T00:01:20.693Z,2.90
2022-11-27T00:03:48.080Z,2.80
2022-11-27T00:06:21.582Z,2.80
2022-11-27T00:08:48.847Z,2.80
2022-11-27T00:11:18.513Z,2.70
2022-11-27T00:13:45.871Z,2.70
2022-11-27T00:16:13.544Z,2.60
2022-11-27T00:18:40.953Z,2.60
2022-11-27T00:21:12.736Z,2.60
2022-11-27T00:23:39.950Z,2.50
2022-11-27T00:26:07.438Z,2.50
2022-11-27T00:28:35.499Z,2.40
2022-11-27T00:31:15.901Z,2.40
2022-11-27T00:33:43.008Z,2.40
2022-11-27T00:36:10.728Z,2.30
2022-11-27T00:38:39.127Z,2.30
2022-11-27T00:41:08.299Z,2.30
2022-11-27T00:43:44.057Z,2.20
2022-11-27T00:46:13.386Z,2.20
2022-11-27T00:48:40.531Z,2.10
2022-11-27T00:51:10.062Z,2.10
2022-11-27T00:53:37.429Z,2.00
2022-11-27T00:56:04.505Z,2.00
2022-11-27T00:58:31.342Z,2.00
2022-11-27T01:01:03.985Z,2.00
2022-11-27T01:03:31.389Z,1.90
2022-11-27T01:06:06.228Z,1.90
2022-11-27T01:08:34.397Z,1.80
2022-11-27T01:11:01.737Z,1.80
2022-11-27T01:13:32.390Z,1.80
2022-11-27T01:16:03.737Z,1.80
2022-11-27T01:18:30.927Z,1.80
2022-11-27T01:20:58.129Z,1.70
2022-11-27T01:23:25.435Z,1.70
2022-11-27T01:25:53.867Z,1.70
2022-11-27T01:28:22.261Z,1.70
2022-11-27T01:30:49.394Z,1.70
2022-11-27T01:33:16.488Z,1.70
2022-11-27T01:35:43.275Z,1.70
2022-11-27T01:38:09.994Z,1.60
2022-11-27T01:40:36.811Z,1.60
2022-11-27T01:43:03.582Z,1.60
2022-11-27T01:45:30.508Z,1.50
2022-11-27T01:48:00.868Z,1.50
2022-11-27T01:50:35.949Z,1.50
2022-11-27T01:53:13.858Z,1.50
2022-11-27T01:55:45.957Z,1.50
2022-11-27T01:58:19.935Z,1.50
2022-11-27T02:00:46.677Z,1.50
2022-11-27T02:03:13.505Z,1.50
2022-11-27T02:05:40.343Z,1.50
2022-11-27T02:08:12.741Z,1.50
2022-11-27T02:11:09.864Z,1.50
2022-11-27T02:14:11.226Z,1.50
2022-11-27T02:17:04.491Z,1.50
2022-11-27T02:19:50.558Z,1.50
2022-11-27T02:22:35.970Z,1.50
2022-11-27T02:25:06.388Z,1.50
2022-11-27T02:28:09.488Z,1.50
2022-11-27T02:30:44.919Z,1.50
2022-11-27T02:33:12.886Z,1.50
2022-11-27T02:35:55.348Z,1.50
2022-11-27T02:38:30.714Z,1.40
2022-11-27T02:41:06.540Z,1.40
2022-11-27T02:43:45.067Z,1.40
2022-11-27T02:46:14.194Z,1.30
2022-11-27T02:48:47.437Z,1.30
2022-11-27T02:51:16.949Z,1.30
2022-11-27T02:53:50.217Z,1.20
2022-11-27T02:56:20.875Z,1.10
2022-11-27T02:58:48.576Z,1.20
2022-11-27T03:01:18.013Z,1.10
2022-11-27T03:03:49.050Z,1.10
2022-11-27T03:06:23.405Z,1.00
2022-11-27T03:08:54.385Z,1.00
2022-11-27T03:11:22.192Z,1.00
2022-11-27T03:14:01.086Z,1.00
2022-11-27T03:16:43.909Z,1.00
2022-11-27T03:19:30.135Z,0.90
2022-11-27T03:21:59.521Z,0.90
2022-11-27T03:24:27.828Z,0.90
2022-11-27T03:26:55.178Z,0.80
2022-11-27T03:29:27.315Z,0.80
2022-11-27T03:31:55.279Z,0.80
2022-11-27T03:34:22.095Z,0.70
2022-11-27T03:36:48.858Z,0.70
2022-11-27T03:39:15.990Z,0.70
2022-11-27T03:41:57.850Z,0.70
2022-11-27T03:44:59.602Z,0.70
2022-11-27T03:47:48.445Z,0.60
2022-11-27T03:50:36.411Z,0.60
2022-11-27T03:53:21.870Z,0.60
2022-11-27T03:56:29.523Z,0.60
2022-11-27T03:59:01.829Z,0.60
2022-11-27T04:01:29.376Z,0.60
2022-11-27T04:03:56.150Z,0.50
2022-11-27T04:06:22.974Z,0.50
2022-11-27T04:08:49.763Z,0.50
2022-11-27T04:11:16.796Z,0.50
2022-11-27T04:13:43.693Z,0.50
2022-11-27T04:16:10.831Z,0.50
2022-11-27T04:18:37.596Z,0.40
2022-11-27T04:21:04.486Z,0.40
2022-11-27T04:23:31.226Z,0.40
2022-11-27T04:25:58.023Z,0.40
2022-11-27T04:28:24.765Z,0.40
2022-11-27T04:30:53.234Z,0.40
2022-11-27T04:33:20.324Z,0.40
2022-11-27T04:35:47.087Z,0.30
2022-11-27T04:38:13.826Z,0.30
2022-11-27T04:40:40.545Z,0.30
2022-11-27T04:43:07.615Z,0.30
2022-11-27T04:45:34.483Z,0.30
2022-11-27T04:48:01.244Z,0.30
2022-11-27T04:50:28.048Z,0.30
2022-11-27T04:52:54.744Z,0.20
2022-11-27T04:55:21.775Z,0.20
2022-11-27T04:57:48.539Z,0.20
2022-11-27T05:00:15.718Z,0.20
2022-11-27T05:02:42.548Z,0.20
2022-11-27T05:05:09.442Z,0.20
2022-11-27T05:07:36.396Z,0.20
2022-11-27T05:10:04.816Z,0.10
2022-11-27T05:12:31.634Z,0.20
2022-11-27T05:15:01.860Z,0.10
2022-11-27T05:17:31.137Z,0.10
2022-11-27T05:19:57.872Z,0.10
2022-11-27T05:22:24.772Z,0.10
2022-11-27T05:24:51.510Z,0.10
2022-11-27T05:27:18.274Z,0.10
2022-11-27T05:29:45.112Z,0.10
2022-11-27T05:32:11.826Z,0.10
2022-11-27T05:34:38.751Z,0.10
2022-11-27T05:37:05.716Z,0.10
2022-11-27T05:39:32.435Z,0.10
2022-11-27T05:41:59.201Z,0.00
2022-11-27T05:44:26.744Z,0.00
2022-11-27T05:46:53.529Z,0.00
2022-11-27T05:49:20.319Z,0.00
2022-11-27T05:51:51.384Z,-0.10
2022-11-27T05:54:19.274Z,-0.10
2022-11-27T05:56:46.210Z,-0.10
2022-11-27T05:59:13.000Z,-0.10
2022-11-27T06:01:39.911Z,-0.10
2022-11-27T06:04:06.749Z,-0.10
2022-11-27T06:06:33.520Z,-0.10
2022-11-27T06:09:00.737Z,-0.20
2022-11-27T06:11:27.586Z,-0.20
2022-11-27T06:13:54.315Z,-0.20
2022-11-27T06:16:23.544Z,-0.20
2022-11-27T06:18:52.528Z,-0.20
2022-11-27T06:21:20.416Z,-0.20
2022-11-27T06:23:47.171Z,-0.20
2022-11-27T06:26:17.196Z,-0.20
2022-11-27T06:28:44.785Z,-0.20
2022-11-27T06:31:18.025Z,-0.20
2022-11-27T06:33:46.608Z,-0.20
2022-11-27T06:36:13.459Z,-0.20
2022-11-27T06:38:40.331Z,-0.20
2022-11-27T06:41:09.698Z,-0.20
2022-11-27T06:43:36.567Z,-0.20
2022-11-27T06:46:05.010Z,-0.20
2022-11-27T06:48:33.482Z,-0.20
2022-11-27T06:51:02.174Z,-0.10
2022-11-27T06:53:30.317Z,-0.20
2022-11-27T06:55:57.675Z,-0.10
2022-11-27T06:58:30.688Z,-0.10
2022-11-27T07:01:01.986Z,-0.10
2022-11-27T07:03:28.910Z,-0.10
2022-11-27T07:05:55.636Z,0.00
2022-11-27T07:08:22.499Z,0.00
2022-11-27T07:10:49.410Z,0.00
2022-11-27T07:13:16.267Z,0.10
2022-11-27T07:15:43.603Z,0.10
2022-11-27T07:18:11.062Z,0.10
2022-11-27T07:20:37.852Z,0.20
2022-11-27T07:23:04.593Z,0.30
2022-11-27T07:25:31.334Z,0.30
2022-11-27T07:27:58.080Z,0.40
2022-11-27T07:30:24.823Z,0.40
2022-11-27T07:32:51.561Z,0.50
2022-11-27T07:35:18.630Z,0.60
2022-11-27T07:37:45.345Z,0.60
2022-11-27T07:40:13.873Z,0.70
2022-11-27T07:42:41.661Z,0.70
2022-11-27T07:45:09.630Z,0.80
2022-11-27T07:47:36.680Z,0.80
2022-11-27T07:50:04.292Z,0.80
2022-11-27T07:52:31.027Z,0.90
2022-11-27T07:54:57.764Z,1.00
2022-11-27T07:57:24.499Z,1.00
2022-11-27T07:59:51.223Z,1.10
2022-11-27T08:02:17.975Z,1.20
2022-11-27T08:04:45.134Z,1.20
2022-11-27T08:07:12.411Z,1.30
2022-11-27T08:09:39.985Z,1.40
2022-11-27T08:12:07.522Z,1.40
2022-11-27T08:14:34.288Z,1.50
2022-11-27T08:17:01.111Z,1.50
2022-11-27T08:19:27.915Z,1.50
2022-11-27T08:21:56.170Z,1.60
2022-11-27T08:24:22.908Z,1.60
2022-11-27T08:26:49.669Z,1.70
2022-11-27T08:29:16.480Z,1.80
2022-11-27T08:31:43.270Z,1.80
2022-11-27T08:34:10.070Z,1.90
2022-11-27T08:36:36.820Z,2.00
2022-11-27T08:39:03.696Z,2.10
2022-11-27T08:41:30.437Z,2.10
2022-11-27T08:43:57.165Z,2.20
2022-11-27T08:46:23.913Z,2.30
2022-11-27T08:48:50.639Z,2.40
2022-11-27T08:51:17.481Z,2.50
2022-11-27T08:53:45.656Z,2.60
2022-11-27T08:56:24.168Z,2.60
2022-11-27T08:58:51.657Z,2.70
2022-11-27T09:01:29.169Z,2.80
2022-11-27T09:03:56.458Z,2.80
2022-11-27T09:06:28.131Z,2.90
2022-11-27T09:09:01.932Z,3.00
2022-11-27T09:11:31.101Z,3.10
2022-11-27T09:14:02.407Z,3.10
2022-11-27T09:16:30.509Z,3.20
2022-11-27T09:18:58.050Z,3.20
2022-11-27T09:21:27.200Z,3.30
2022-11-27T09:23:58.815Z,3.30
2022-11-27T09:26:26.478Z,3.40
2022-11-27T09:28:54.352Z,3.40
2022-11-27T09:31:22.769Z,3.50
2022-11-27T09:33:49.986Z,3.50
2022-11-27T09:36:20.243Z,3.50
2022-11-27T09:38:47.715Z,3.60
2022-11-27T09:41:49.369Z,3.60
2022-11-27T09:44:39.758Z,3.60
2022-11-27T09:47:19.743Z,3.60
2022-11-27T09:49:54.771Z,3.70
2022-11-27T09:52:51.073Z,3.60
2022-11-27T09:55:36.793Z,3.60
2022-11-27T09:58:15.723Z,3.70
2022-11-27T10:00:47.191Z,3.70
2022-11-27T10:03:16.556Z,3.70
2022-11-27T10:05:58.128Z,3.80
2022-11-27T10:08:57.995Z,3.80
2022-11-27T10:11:30.535Z,3.80
2022-11-27T10:14:16.158Z,3.90
2022-11-27T10:16:52.703Z,3.90
2022-11-27T10:19:27.117Z,3.90
2022-11-27T10:22:03.942Z,3.90
2022-11-27T10:25:02.364Z,3.90
2022-11-27T10:27:59.504Z,4.00
2022-11-27T10:30:28.301Z,4.10
2022-11-27T10:32:58.580Z,4.10
2022-11-27T10:35:43.418Z,4.20
2022-11-27T10:38:26.721Z,4.20
2022-11-27T10:41:48.086Z,4.30
2022-11-27T10:44:32.678Z,4.40
2022-11-27T10:47:05.582Z,4.40
2022-11-27T10:49:41.128Z,4.40
2022-11-27T10:52:16.838Z,4.40
2022-11-27T10:54:47.221Z,4.40
2022-11-27T10:57:19.815Z,4.40
2022-11-27T11:00:00.556Z,4.40
2022-11-27T11:02:33.520Z,4.40
2022-11-27T11:08:19.159Z,4.50
2022-11-27T11:10:51.902Z,4.60
2022-11-27T11:13:27.192Z,4.70
2022-11-27T11:15:57.033Z,4.70
2022-11-27T11:18:44.181Z,4.80
2022-11-27T11:21:27.106Z,4.90
2022-11-27T11:24:06.355Z,5.00
2022-11-27T11:26:38.896Z,5.00
2022-11-27T11:29:17.973Z,5.10
2022-11-27T11:31:45.236Z,5.20
2022-11-27T11:34:30.165Z,5.20
2022-11-27T11:37:06.429Z,5.20
2022-11-27T11:39:39.160Z,5.30
2022-11-27T11:42:11.186Z,5.20
2022-11-27T11:44:39.793Z,5.30
2022-11-27T11:47:15.297Z,5.30
2022-11-27T11:49:42.152Z,5.30
2022-11-27T11:52:21.767Z,5.30
2022-11-27T11:55:18.995Z,5.30
2022-11-27T11:58:23.428Z,5.40
2022-11-27T12:01:26.501Z,5.50
2022-11-27T12:04:24.728Z,5.60
2022-11-27T12:07:16.890Z,5.60
2022-11-27T12:09:57.451Z,5.60
2022-11-27T12:12:35.815Z,5.70
2022-11-27T12:15:31.763Z,5.80
2022-11-27T12:18:03.115Z,5.80
2022-11-27T12:20:47.847Z,5.80
2022-11-27T12:23:38.458Z,5.80
2022-11-27T12:26:23.899Z,5.90
2022-11-27T12:29:20.690Z,5.90
2022-11-27T12:31:47.470Z,6.00
2022-11-27T12:34:32.927Z,6.00
2022-11-27T12:37:22.785Z,6.00
2022-11-27T12:40:18.611Z,6.10
2022-11-27T12:43:04.406Z,6.10
2022-11-27T12:45:44.028Z,6.20
2022-11-27T12:48:26.489Z,6.20
2022-11-27T12:51:11.415Z,6.30
2022-11-27T12:53:47.937Z,6.40
2022-11-27T12:56:40.228Z,6.40
2022-11-27T12:59:25.546Z,6.50
2022-11-27T13:02:26.813Z,6.60
2022-11-27T13:05:22.770Z,6.70
2022-11-27T13:07:56.212Z,6.80
2022-11-27T13:10:35.469Z,6.80
2022-11-27T13:13:50.059Z,6.80
2022-11-27T13:16:46.694Z,6.80
2022-11-27T13:19:35.855Z,6.80
2022-11-27T13:22:10.943Z,6.80
2022-11-27T13:24:38.587Z,6.80
2022-11-27T13:27:10.718Z,6.80
2022-11-27T13:29:56.785Z,6.80
2022-11-27T13:32:30.265Z,6.80
2022-11-27T13:34:59.969Z,6.80
2022-11-27T13:37:41.456Z,6.80
2022-11-27T13:40:20.887Z,6.80
2022-11-27T13:42:55.463Z,6.90
2022-11-27T13:45:32.282Z,6.90
2022-11-27T13:48:01.040Z,6.90
2022-11-27T13:50:31.479Z,6.90
2022-11-27T13:53:07.359Z,6.90
2022-11-27T13:55:38.703Z,6.90
2022-11-27T13:58:07.174Z,6.90
2022-11-27T14:00:41.156Z,6.90
2022-11-27T14:03:20.943Z,6.90
2022-11-27T14:05:47.681Z,6.90
2022-11-27T14:08:21.733Z,6.90
2022-11-27T14:11:00.748Z,7.00
2022-11-27T14:13:56.017Z,6.90
2022-11-27T14:16:34.031Z,7.00
2022-11-27T14:19:03.765Z,6.90
2022-11-27T14:21:38.900Z,6.90
2022-11-27T14:24:27.165Z,6.90
2022-11-27T14:26:55.077Z,6.90
2022-11-27T14:29:23.416Z,6.90
2022-11-27T14:32:01.452Z,6.80
2022-11-27T14:34:29.321Z,6.80
2022-11-27T14:36:56.731Z,6.70
2022-11-27T14:39:35.050Z,6.70
2022-11-27T14:42:02.969Z,6.70
2022-11-27T14:44:30.344Z,6.60
2022-11-27T14:47:00.692Z,6.60
2022-11-27T14:49:30.063Z,6.50
2022-11-27T14:52:05.596Z,6.50
2022-11-27T14:54:36.744Z,6.50
2022-11-27T14:57:05.420Z,6.50
2022-11-27T14:59:32.552Z,6.40
2022-11-27T15:02:02.126Z,6.40
2022-11-27T15:04:38.282Z,6.30
2022-11-27T15:07:21.977Z,6.30
2022-11-27T15:09:55.148Z,6.30
2022-11-27T15:12:28.046Z,6.20
2022-11-27T15:15:07.959Z,6.20
2022-11-27T15:17:38.582Z,6.10
2022-11-27T15:20:20.495Z,6.10
2022-11-27T15:22:52.789Z,6.00
2022-11-27T15:25:40.007Z,6.00
2022-11-27T15:28:28.097Z,6.00
2022-11-27T15:30:56.374Z,5.90
2022-11-27T15:33:28.845Z,5.90
2022-11-27T15:36:17.091Z,5.90
2022-11-27T15:38:45.689Z,5.80
2022-11-27T15:41:27.764Z,5.80
2022-11-27T15:43:55.633Z,5.80
2022-11-27T15:46:30.269Z,5.80
2022-11-27T15:48:57.424Z,5.80
2022-11-27T15:51:24.450Z,5.80
2022-11-27T15:53:51.230Z,5.80
2022-11-27T15:56:18.075Z,5.80
2022-11-27T15:58:44.856Z,5.80
2022-11-27T16:01:11.767Z,5.80
2022-11-27T16:03:39.992Z,5.80
2022-11-27T16:06:08.871Z,5.80
2022-11-27T16:08:35.929Z,5.80
2022-11-27T16:11:05.849Z,5.80
2022-11-27T16:13:32.702Z,5.70
2022-11-27T16:16:08.101Z,5.70
2022-11-27T16:18:35.437Z,5.70
2022-11-27T16:21:08.771Z,5.70
2022-11-27T16:23:36.383Z,5.70
2022-11-27T16:26:03.790Z,5.70
2022-11-27T16:28:31.638Z,5.70
2022-11-27T16:31:01.271Z,5.60
2022-11-27T16:33:30.362Z,5.60
2022-11-27T16:36:08.501Z,5.60
2022-11-27T16:38:35.837Z,5.60
2022-11-27T16:41:05.647Z,5.60
2022-11-27T16:43:37.842Z,5.60
2022-11-27T16:46:19.753Z,5.50
2022-11-27T16:48:49.246Z,5.50
2022-11-27T16:51:23.043Z,5.50
2022-11-27T16:53:52.160Z,5.60
2022-11-27T16:56:23.511Z,5.50
2022-11-27T16:58:51.639Z,5.50
2022-11-27T17:01:21.814Z,5.50
2022-11-27T17:03:49.253Z,5.50
2022-11-27T17:06:19.032Z,5.50
2022-11-27T17:08:46.420Z,5.50
2022-11-27T17:11:20.360Z,5.50
2022-11-27T17:13:48.361Z,5.50
2022-11-27T17:16:16.434Z,5.50
2022-11-27T17:18:45.557Z,5.50
2022-11-27T17:21:18.121Z,5.50
2022-11-27T17:23:46.861Z,5.50
2022-11-27T17:26:20.317Z,5.50
2022-11-27T17:28:47.261Z,5.50
2022-11-27T17:31:19.555Z,5.50
2022-11-27T17:33:47.590Z,5.40
2022-11-27T17:36:15.243Z,5.40
2022-11-27T17:38:42.137Z,5.40
2022-11-27T17:41:12.143Z,5.40
2022-11-27T17:43:40.213Z,5.40
2022-11-27T17:46:13.654Z,5.40
2022-11-27T17:48:41.160Z,5.40
2022-11-27T17:51:08.741Z,5.30
2022-11-27T17:53:37.142Z,5.30
2022-11-27T17:56:05.780Z,5.30
2022-11-27T17:58:33.123Z,5.30
2022-11-27T18:01:00.421Z,5.30
2022-11-27T18:03:31.024Z,5.30
2022-11-27T18:06:02.649Z,5.30
2022-11-27T18:08:29.582Z,5.30
2022-11-27T18:10:56.377Z,5.30
2022-11-27T18:13:26.284Z,5.30
2022-11-27T18:15:53.207Z,5.20
2022-11-27T18:18:19.985Z,5.20
2022-11-27T18:20:46.779Z,5.20
2022-11-27T18:23:15.125Z,5.20
2022-11-27T18:25:47.717Z,5.20
2022-11-27T18:28:15.911Z,5.20
2022-11-27T18:30:42.632Z,5.20
2022-11-27T18:33:09.383Z,5.20
2022-11-27T18:35:41.687Z,5.20
2022-11-27T18:38:08.580Z,5.20
2022-11-27T18:40:39.622Z,5.20
2022-11-27T18:43:06.371Z,5.20
2022-11-27T18:45:33.816Z,5.20
2022-11-27T18:48:01.305Z,5.20
2022-11-27T18:50:29.825Z,5.20
2022-11-27T18:52:56.990Z,5.20
2022-11-27T18:55:23.856Z,5.20
2022-11-27T18:57:50.727Z,5.10
2022-11-27T19:00:18.131Z,5.10
2022-11-27T19:02:45.045Z,5.10
2022-11-27T19:05:12.181Z,5.10
2022-11-27T19:07:39.000Z,5.10
2022-11-27T19:10:06.792Z,5.10
2022-11-27T19:12:33.590Z,5.10
2022-11-27T19:15:00.346Z,5.10
2022-11-27T19:17:32.171Z,5.10
2022-11-27T19:19:59.775Z,5.10
2022-11-27T19:22:26.821Z,5.20
2022-11-27T19:24:56.231Z,5.20
2022-11-27T19:27:23.036Z,5.20
2022-11-27T19:29:50.057Z,5.10
2022-11-27T19:32:17.566Z,5.10
2022-11-27T19:34:44.631Z,5.10
2022-11-27T19:37:12.200Z,5.10
2022-11-27T19:39:38.966Z,5.10
2022-11-27T19:42:06.842Z,5.10
2022-11-27T19:44:34.469Z,5.10
2022-11-27T19:47:01.321Z,5.10
2022-11-27T19:49:28.196Z,5.10
2022-11-27T19:51:54.982Z,5.10
2022-11-27T19:54:23.148Z,5.10
2022-11-27T19:56:51.004Z,5.10
2022-11-27T19:59:21.533Z,5.10
2022-11-27T20:01:53.264Z,5.10
2022-11-27T20:04:24.657Z,5.10
2022-11-27T20:06:53.415Z,5.10
2022-11-27T20:09:20.454Z,5.10
2022-11-27T20:11:47.721Z,5.10
2022-11-27T20:14:14.995Z,5.10
2022-11-27T20:16:43.061Z,5.10
2022-11-27T20:19:10.065Z,5.10
2022-11-27T20:21:37.503Z,5.10
2022-11-27T20:24:04.677Z,5.10
2022-11-27T20:26:37.127Z,5.10
2022-11-27T20:29:07.291Z,5.10
2022-11-27T20:31:37.496Z,5.10
2022-11-27T20:34:06.595Z,5.10
2022-11-27T20:36:37.943Z,5.10
2022-11-27T20:39:04.954Z,5.10
2022-11-27T20:41:32.888Z,5.10
2022-11-27T20:44:01.688Z,5.10
2022-11-27T20:46:30.782Z,5.10
2022-11-27T20:48:58.982Z,5.10
2022-11-27T20:51:31.317Z,5.10
2022-11-27T20:53:59.557Z,5.10
2022-11-27T20:56:26.543Z,5.10
2022-11-27T20:58:53.399Z,5.10
2022-11-27T21:01:25.980Z,5.10
2022-11-27T21:03:55.186Z,5.10
2022-11-27T21:06:26.511Z,5.10
2022-11-27T21:08:54.545Z,5.10
2022-11-27T21:11:26.801Z,5.10
2022-11-27T21:13:58.468Z,5.10
2022-11-27T21:16:27.497Z,5.10
2022-11-27T21:19:00.445Z,5.10
2022-11-27T21:21:28.171Z,5.10
2022-11-27T21:23:55.591Z,5.10
2022-11-27T21:26:23.649Z,5.10
2022-11-27T21:28:50.473Z,5.10
2022-11-27T21:31:20.991Z,5.10
2022-11-27T21:33:50.370Z,5.10
2022-11-27T21:36:18.139Z,5.10
2022-11-27T21:38:45.482Z,5.10
2022-11-27T21:41:13.963Z,5.20
2022-11-27T21:43:41.546Z,5.20
2022-11-27T21:46:12.578Z,5.10
2022-11-27T21:48:40.930Z,5.10
2022-11-27T21:51:20.868Z,5.10
2022-11-27T21:53:49.931Z,5.10
2022-11-27T21:56:18.510Z,5.10
2022-11-27T21:58:45.793Z,5.10
2022-11-27T22:01:15.278Z,5.10
2022-11-27T22:03:43.186Z,5.10
2022-11-27T22:06:13.010Z,5.10
2022-11-27T22:08:41.333Z,5.10
2022-11-27T22:11:10.674Z,5.10
2022-11-27T22:13:38.165Z,5.10
2022-11-27T22:16:20.118Z,5.10
2022-11-27T22:18:48.340Z,5.10
2022-11-27T22:21:16.998Z,5.20
2022-11-27T22:23:43.742Z,5.20
2022-11-27T22:26:13.745Z,5.10
2022-11-27T22:28:41.288Z,5.20
2022-11-27T22:31:14.463Z,5.20
2022-11-27T22:33:42.493Z,5.20
2022-11-27T22:36:18.176Z,5.20
2022-11-27T22:38:46.866Z,5.20
2022-11-27T22:41:14.841Z,5.20
2022-11-27T22:43:42.164Z,5.20
2022-11-27T22:46:12.521Z,5.20
2022-11-27T22:48:39.357Z,5.20
2022-11-27T22:51:06.327Z,5.20
2022-11-27T22:53:33.571Z,5.20
2022-11-27T22:56:08.254Z,5.20
2022-11-27T22:58:40.927Z,5.20
2022-11-27T23:01:13.487Z,5.20
2022-11-27T23:03:40.338Z,5.20
2022-11-27T23:06:11.919Z,5.20
2022-11-27T23:08:40.047Z,5.20
2022-11-27T23:11:09.048Z,5.20
2022-11-27T23:13:36.452Z,5.20
2022-11-27T23:16:06.045Z,5.20
2022-11-27T23:18:33.560Z,5.20
2022-11-27T23:21:00.384Z,5.20
2022-11-27T23:23:27.219Z,5.20
2022-11-27T23:25:53.973Z,5.20
2022-11-27T23:28:20.718Z,5.20
2022-11-27T23:30:50.309Z,5.20
2022-11-27T23:33:25.888Z,5.20
2022-11-27T23:36:00.328Z,5.20
2022-11-27T23:38:28.622Z,5.20
2022-11-27T23:40:57.092Z,5.20
2022-11-27T23:43:23.873Z,5.20
2022-11-27T23:45:50.664Z,5.20
2022-11-27T23:48:17.430Z,5.20
2022-11-27T23:50:44.140Z,5.20
2022-11-27T23:53:10.957Z,5.20
2022-11-27T23:55:37.754Z,5.20
2022-11-27T23:58:04.496Z,5.20
